Time;durP1;ratioP1;P1;durP2;ratioP2;P2;SDS_P1;SDS_P2;PMS_P1;PMS_P2;Temp;Humidity;BMP_temperature;BMP_pressure;BME280_temperature;BME280_humidity;BME280_pressure;Samples;Min_cycle;Max_cycle;Signal;HPM_P1;HPM_P2
2023/09/30 00:02:33;;;;;;;11.50;7.00;;;;;;;15.95;69.33;99642.33;435931;1253;139240;-63
2023/09/30 00:12:39;;;;;;;6.90;6.30;;;;;;;16.00;69.35;99641.98;435821;1251;139760;-63
2023/09/30 00:22:45;;;;;;;7.30;5.50;;;;;;;16.03;69.54;99639.23;436187;1251;141170;-64
2023/09/30 00:32:51;;;;;;;9.30;6.00;;;;;;;16.07;69.48;99639.42;436287;1251;139248;-63
2023/09/30 00:42:57;;;;;;;7.00;6.10;;;;;;;16.10;69.81;99632.73;435884;1251;143660;-63
2023/09/30 00:53:03;;;;;;;6.60;6.00;;;;;;;16.10;70.15;99628.15;435863;1253;140515;-64
2023/09/30 01:03:10;;;;;;;9.60;7.10;;;;;;;16.08;70.52;99627.30;436059;1251;139451;-64
2023/09/30 01:13:17;;;;;;;6.50;5.90;;;;;;;16.06;70.62;99625.31;435794;1251;139974;-63
2023/09/30 01:23:23;;;;;;;7.50;6.10;;;;;;;16.07;71.07;99621.16;435690;1254;140808;-63
2023/09/30 01:33:29;;;;;;;9.80;6.30;;;;;;;16.05;71.13;99626.48;435672;1256;139090;-64
2023/09/30 01:43:36;;;;;;;8.80;6.50;;;;;;;16.04;71.45;99624.44;435562;1251;139934;-65
2023/09/30 01:53:43;;;;;;;14.10;6.10;;;;;;;16.02;72.03;99624.13;435524;1251;140642;-65
2023/09/30 02:03:49;;;;;;;6.80;6.10;;;;;;;15.95;72.26;99618.83;435666;1251;141191;-64
2023/09/30 02:13:55;;;;;;;8.50;7.60;;;;;;;15.91;73.17;99619.02;437598;1251;139339;-65
2023/09/30 02:24:02;;;;;;;12.00;7.10;;;;;;;15.78;73.84;99615.40;435762;1255;139595;-63
2023/09/30 02:34:08;;;;;;;9.70;7.80;;;;;;;15.71;75.12;99631.11;435810;1254;140286;-63
2023/09/30 02:44:14;;;;;;;8.20;7.20;;;;;;;15.64;76.37;99632.02;435377;1254;140927;-63
2023/09/30 02:54:19;;;;;;;10.10;8.60;;;;;;;15.59;77.48;99612.91;435457;1252;140731;-63
2023/09/30 03:04:28;;;;;;;10.30;8.30;;;;;;;15.51;77.26;99608.77;435448;1251;142338;-62
2023/09/30 03:14:34;;;;;;;8.30;7.60;;;;;;;15.42;78.62;99615.38;435444;1255;141116;-64
2023/09/30 03:24:41;;;;;;;9.00;8.20;;;;;;;15.35;79.82;99604.48;435604;1255;140357;-64
2023/09/30 03:34:48;;;;;;;11.90;8.20;;;;;;;15.30;80.78;99605.42;435473;1253;140796;-64
2023/09/30 03:44:53;;;;;;;13.30;9.00;;;;;;;15.27;82.14;99604.61;435272;1256;139164;-63
2023/09/30 03:54:59;;;;;;;11.30;9.40;;;;;;;15.19;82.72;99605.83;435580;1255;139782;-63
2023/09/30 04:05:06;;;;;;;9.90;8.90;;;;;;;15.15;84.02;99611.24;435410;1254;140293;-64
2023/09/30 04:15:13;;;;;;;16.30;10.00;;;;;;;15.12;85.08;99628.38;436258;1251;139625;-63
2023/09/30 04:25:19;;;;;;;10.70;8.80;;;;;;;15.01;85.48;99640.60;435687;1255;139478;-63
2023/09/30 04:35:25;;;;;;;11.40;9.50;;;;;;;14.98;86.89;99629.89;435498;1254;141846;-64
2023/09/30 04:45:31;;;;;;;10.90;9.20;;;;;;;14.97;87.60;99636.14;435562;1255;139247;-65
2023/09/30 04:55:38;;;;;;;12.00;9.50;;;;;;;14.95;88.40;99651.33;435275;1254;139401;-64
2023/09/30 05:05:44;;;;;;;11.30;9.80;;;;;;;14.88;88.87;99663.45;435993;1251;139393;-63
2023/09/30 05:15:49;;;;;;;11.40;10.40;;;;;;;14.84;89.97;99664.30;436325;1254;139579;-64
2023/09/30 05:25:55;;;;;;;12.60;11.20;;;;;;;14.86;91.09;99668.23;436934;1254;140204;-63
2023/09/30 05:36:03;;;;;;;13.50;11.10;;;;;;;14.89;92.05;99669.61;436324;1256;142626;-64
2023/09/30 05:46:10;;;;;;;11.40;10.20;;;;;;;14.96;93.21;99682.90;436529;1255;139614;-64
2023/09/30 05:56:16;;;;;;;15.40;12.80;;;;;;;15.16;94.51;99699.50;435643;1254;140957;-63
2023/09/30 06:06:23;;;;;;;12.30;11.10;;;;;;;15.40;95.24;99699.50;435667;1256;140271;-65
2023/09/30 06:16:31;;;;;;;14.10;11.40;;;;;;;15.59;95.79;99706.70;435737;1254;141229;-64
2023/09/30 06:26:37;;;;;;;14.30;11.50;;;;;;;15.75;96.49;99716.67;436386;1256;140500;-65
2023/09/30 06:36:43;;;;;;;13.50;11.40;;;;;;;16.03;98.28;99723.42;435641;1255;140257;-63
2023/09/30 06:46:50;;;;;;;13.70;12.30;;;;;;;16.29;98.66;99731.63;435579;1254;140049;-64
2023/09/30 06:56:56;;;;;;;16.30;13.50;;;;;;;16.43;98.87;99735.56;436013;1255;139529;-65
2023/09/30 07:07:02;;;;;;;16.20;14.50;;;;;;;16.51;99.28;99743.71;435389;1253;140449;-65
2023/09/30 07:17:07;;;;;;;16.70;15.10;;;;;;;16.64;99.79;99758.66;435836;1254;140650;-64
2023/09/30 07:27:13;;;;;;;18.70;14.40;;;;;;;16.83;99.99;99770.98;435427;1253;139469;-64
2023/09/30 07:37:32;;;;;;;17.00;15.20;;;;;;;16.94;99.95;99779.03;435803;1252;140211;-64
2023/09/30 07:47:38;;;;;;;16.30;13.80;;;;;;;17.04;99.81;99796.45;435467;1254;140137;-64
2023/09/30 07:57:45;;;;;;;14.60;13.10;;;;;;;17.60;100.00;99801.45;435921;1256;139683;-64
2023/09/30 08:07:50;;;;;;;;;;;;;;;18.54;99.40;99811.14;435498;1255;141346;-63
2023/09/30 08:17:56;;;;;;;12.50;10.90;;;;;;;18.75;97.07;99829.34;435572;1256;125656;-64
2023/09/30 08:28:02;;;;;;;12.00;10.90;;;;;;;18.66;95.33;99831.61;436364;1254;140223;-63
2023/09/30 08:38:08;;;;;;;12.40;10.10;;;;;;;18.64;95.01;99832.73;436362;1253;140081;-64
2023/09/30 08:48:14;;;;;;;11.60;9.60;;;;;;;18.78;94.77;99835.50;435593;1255;139687;-64
2023/09/30 08:58:24;;;;;;;11.70;8.30;;;;;;;18.70;93.53;99841.39;435607;1255;198783;-64
2023/09/30 09:08:30;;;;;;;8.30;5.60;;;;;;;18.43;92.30;99857.90;435826;1256;139367;-64
2023/09/30 09:18:36;;;;;;;5.70;4.10;;;;;;;18.05;91.87;99879.41;435602;1256;140114;-63
2023/09/30 09:28:42;;;;;;;6.60;3.40;;;;;;;17.83;92.09;99896.95;435595;1256;141723;-63
2023/09/30 09:38:53;;;;;;;6.00;2.30;;;;;;;18.18;92.29;99913.81;435694;1256;139171;-63
2023/09/30 09:48:59;;;;;;;5.00;2.10;;;;;;;18.17;90.05;99941.77;435888;1256;139779;-63
2023/09/30 09:59:07;;;;;;;5.90;2.10;;;;;;;17.84;88.70;99954.20;435904;1255;139178;-62
2023/09/30 10:09:15;;;;;;;6.60;2.20;;;;;;;17.91;88.62;99963.20;436249;1257;139127;-68
2023/09/30 10:19:23;;;;;;;4.30;1.30;;;;;;;18.27;87.73;99970.06;436368;1256;141723;-69
2023/09/30 10:29:42;;;;;;;4.00;1.90;;;;;;;18.67;86.62;99971.64;435734;1256;139312;-69
2023/09/30 10:39:59;;;;;;;3.40;2.30;;;;;;;18.72;84.52;99980.35;436132;1256;139337;-70
2023/09/30 10:50:26;;;;;;;5.00;2.70;;;;;;;18.61;82.97;99987.92;436236;1251;139125;-69
2023/09/30 11:00:32;;;;;;;7.40;1.70;;;;;;;18.42;82.03;99996.26;435548;1251;139397;-69
2023/09/30 11:10:38;;;;;;;4.80;2.20;;;;;;;18.59;81.05;99992.34;435651;1257;140821;-69
2023/09/30 11:20:45;;;;;;;7.40;2.30;;;;;;;19.18;78.68;99989.89;435872;1255;140205;-70
2023/09/30 11:31:01;;;;;;;4.90;1.90;;;;;;;19.22;76.15;99992.48;436306;1255;139379;-70
2023/09/30 11:41:08;;;;;;;4.00;2.00;;;;;;;19.09;73.20;100002.59;438207;1253;141677;-70
2023/09/30 11:51:14;;;;;;;5.80;2.80;;;;;;;18.86;71.68;100005.73;436215;1251;140394;-69
2023/09/30 12:01:21;;;;;;;3.70;2.00;;;;;;;18.66;69.67;100003.45;436112;1256;139331;-70
2023/09/30 12:11:29;;;;;;;4.50;1.40;;;;;;;18.41;67.64;100001.63;435656;1251;140159;-70
2023/09/30 12:21:36;;;;;;;6.20;2.20;;;;;;;18.39;67.06;100006.58;435629;1256;139508;-69
2023/09/30 12:31:42;;;;;;;3.40;1.80;;;;;;;18.46;66.17;100000.14;436370;1251;138598;-70
2023/09/30 12:41:59;;;;;;;5.40;2.30;;;;;;;18.70;65.54;100005.34;435805;1255;139503;-68
2023/09/30 12:52:05;;;;;;;4.10;1.90;;;;;;;18.90;64.00;100004.82;435784;1255;138768;-67
2023/09/30 13:02:11;;;;;;;5.70;1.90;;;;;;;18.82;62.96;100012.08;435559;1251;138758;-68
2023/09/30 13:12:17;;;;;;;7.10;2.60;;;;;;;18.74;62.10;100014.11;435600;1251;138682;-68
2023/09/30 13:22:23;;;;;;;5.50;2.50;;;;;;;18.82;61.64;100013.48;435571;1255;140872;-68
2023/09/30 13:32:29;;;;;;;12.30;2.90;;;;;;;18.86;61.19;100007.27;435745;1257;138867;-68
2023/09/30 13:42:35;;;;;;;4.70;2.30;;;;;;;18.61;60.68;100023.21;435739;1251;139819;-68
2023/09/30 13:52:41;;;;;;;8.50;1.90;;;;;;;18.33;60.62;100019.87;436354;1251;139271;-68
2023/09/30 14:02:47;;;;;;;7.40;2.90;;;;;;;18.34;60.86;100017.69;437140;1256;140811;-68
2023/09/30 14:12:53;;;;;;;5.80;2.70;;;;;;;18.51;60.70;100020.55;435802;1251;140384;-70
2023/09/30 14:23:00;;;;;;;4.70;2.30;;;;;;;18.67;59.99;100032.76;435461;1251;139285;-70
2023/09/30 14:33:06;;;;;;;4.30;2.50;;;;;;;18.96;59.37;100034.61;435781;1256;139174;-69
2023/09/30 14:43:12;;;;;;;6.50;3.00;;;;;;;19.12;58.12;100042.94;436540;1251;138789;-70
2023/09/30 14:53:19;;;;;;;6.60;3.10;;;;;;;18.85;57.76;100052.20;436054;1255;140040;-69
2023/09/30 15:03:25;;;;;;;7.10;2.70;;;;;;;18.46;57.66;100064.13;435944;1251;138667;-69
2023/09/30 15:13:31;;;;;;;4.70;2.30;;;;;;;17.91;57.76;100064.80;436080;1256;139937;-65
2023/09/30 15:23:37;;;;;;;8.00;3.70;;;;;;;17.46;58.60;100065.67;436728;1251;138822;-65
2023/09/30 15:33:43;;;;;;;6.80;2.70;;;;;;;17.15;59.44;100072.67;435864;1255;138630;-66
2023/09/30 15:43:49;;;;;;;10.80;2.50;;;;;;;16.79;60.05;100082.86;436208;1251;139129;-66
2023/09/30 15:53:55;;;;;;;4.00;1.90;;;;;;;16.56;60.62;100095.50;435698;1255;139838;-66
2023/09/30 16:04:02;;;;;;;5.70;3.20;;;;;;;16.51;60.96;100097.97;435877;1251;138723;-66
2023/09/30 16:14:08;;;;;;;7.00;3.30;;;;;;;16.29;61.17;100109.70;435914;1251;138614;-65
2023/09/30 16:24:14;;;;;;;6.40;2.00;;;;;;;15.82;61.70;100129.33;436061;1251;138562;-66
2023/09/30 16:34:20;;;;;;;5.10;2.20;;;;;;;15.43;62.83;100142.34;435728;1251;138704;-66
2023/09/30 16:44:26;;;;;;;6.60;2.60;;;;;;;15.23;63.47;100152.30;436418;1251;139360;-66
2023/09/30 16:54:32;;;;;;;6.90;2.90;;;;;;;15.04;63.61;100164.98;436146;1256;139370;-67
2023/09/30 17:04:42;;;;;;;5.00;2.60;;;;;;;14.74;64.07;100159.18;436122;1251;139512;-65
2023/09/30 17:14:48;;;;;;;11.60;4.10;;;;;;;14.30;64.79;100157.70;436109;1256;138966;-66
2023/09/30 17:36:10;;;;;;;7.90;3.00;;;;;;;13.44;66.79;100177.77;435966;1256;139811;-65
2023/09/30 17:46:19;;;;;;;5.40;2.50;;;;;;;13.08;67.85;100191.02;435815;1256;139939;-65
2023/09/30 17:56:26;;;;;;;5.60;2.60;;;;;;;12.73;68.69;100196.94;436010;1256;140321;-65
2023/09/30 18:06:33;;;;;;;11.00;5.60;;;;;;;12.39;69.77;100195.70;435200;1255;139308;-66
2023/09/30 18:16:39;;;;;;;5.60;3.50;;;;;;;12.06;70.86;100197.70;435211;1255;141106;-68
2023/09/30 18:26:45;;;;;;;6.50;3.40;;;;;;;11.70;71.91;100192.40;436401;1254;139742;-68
2023/09/30 18:36:51;;;;;;;6.80;2.90;;;;;;;11.33;73.01;100197.53;435972;1251;139425;-67
2023/09/30 18:46:57;;;;;;;5.20;3.30;;;;;;;11.02;74.15;100195.23;436310;1251;141459;-66
2023/09/30 18:57:03;;;;;;;6.00;4.00;;;;;;;10.72;75.30;100207.23;436469;1251;139205;-67
2023/09/30 19:07:09;;;;;;;5.80;3.10;;;;;;;10.44;76.34;100209.55;435734;1251;140374;-66
2023/09/30 19:17:15;;;;;;;11.40;4.00;;;;;;;10.20;77.23;100215.52;435710;1255;139806;-66
2023/09/30 19:27:21;;;;;;;9.10;4.30;;;;;;;9.99;78.19;100218.89;435960;1251;139351;-66
2023/09/30 19:37:27;;;;;;;7.30;3.30;;;;;;;9.82;78.98;100217.65;435572;1251;140399;-66
2023/09/30 19:47:33;;;;;;;6.70;3.50;;;;;;;9.65;79.86;100222.85;435945;1253;139598;-67
2023/09/30 19:57:39;;;;;;;8.10;3.80;;;;;;;9.48;80.62;100222.98;435926;1254;139779;-68
2023/09/30 20:07:45;;;;;;;9.60;5.40;;;;;;;9.34;81.17;100226.30;435808;1255;139278;-68
2023/09/30 20:17:51;;;;;;;8.40;4.10;;;;;;;9.17;81.72;100235.33;435720;1255;140264;-67
2023/09/30 20:27:58;;;;;;;10.20;5.00;;;;;;;9.02;82.53;100235.01;436453;1253;139259;-67
2023/09/30 20:38:05;;;;;;;11.40;6.40;;;;;;;8.87;83.38;100235.15;437338;1253;140082;-67
2023/09/30 20:48:10;;;;;;;9.40;4.90;;;;;;;8.75;84.05;100247.91;435959;1256;139544;-67
2023/09/30 20:58:16;;;;;;;11.10;4.70;;;;;;;8.67;84.85;100252.45;436023;1253;139878;-67
2023/09/30 21:08:23;;;;;;;6.10;4.20;;;;;;;8.63;85.71;100266.78;435884;1253;139462;-67
2023/09/30 21:18:28;;;;;;;7.60;4.30;;;;;;;8.63;86.42;100268.55;435835;1253;139538;-68
2023/09/30 21:28:34;;;;;;;6.20;4.40;;;;;;;8.61;87.07;100271.75;435858;1255;139485;-68
2023/09/30 21:38:41;;;;;;;8.40;5.00;;;;;;;8.57;87.36;100261.30;436109;1251;139208;-69
2023/09/30 21:48:47;;;;;;;9.10;4.70;;;;;;;8.48;87.72;100258.50;437882;1255;139559;-68
2023/09/30 21:58:53;;;;;;;13.60;6.30;;;;;;;8.39;87.99;100255.77;435717;1256;140643;-68
2023/09/30 22:08:59;;;;;;;10.70;6.80;;;;;;;8.26;88.50;100263.98;435694;1255;139276;-67
2023/09/30 22:19:06;;;;;;;12.70;7.80;;;;;;;8.13;88.63;100265.60;435794;1251;140029;-67
2023/09/30 22:29:11;;;;;;;13.40;10.40;;;;;;;8.05;88.97;100265.46;436192;1251;139455;-67
2023/09/30 22:39:17;;;;;;;10.70;6.80;;;;;;;7.93;89.24;100265.21;436059;1254;139542;-67
2023/09/30 22:49:25;;;;;;;12.90;6.90;;;;;;;7.87;89.82;100275.61;435966;1254;139576;-67
2023/09/30 22:59:31;;;;;;;10.50;6.50;;;;;;;7.74;89.74;100275.95;435959;1254;140689;-66
2023/09/30 23:09:37;;;;;;;9.80;7.60;;;;;;;7.60;89.68;100279.83;436121;1256;140360;-67
2023/09/30 23:19:42;;;;;;;12.30;7.40;;;;;;;7.53;90.11;100280.45;435786;1251;139691;-67
2023/09/30 23:29:49;;;;;;;11.10;6.70;;;;;;;7.49;90.92;100278.69;435921;1251;140127;-68
2023/09/30 23:39:56;;;;;;;12.80;7.40;;;;;;;7.40;91.09;100274.85;436230;1255;139786;-68
2023/09/30 23:50:03;;;;;;;10.50;7.60;;;;;;;7.33;91.52;100277.75;436378;1254;140662;-68
